createdAt,value
2022-08-28T00:01:44.804Z,16.26
2022-08-28T00:04:11.248Z,16.50
2022-08-28T00:06:37.742Z,16.59
2022-08-28T00:09:05.227Z,16.62
2022-08-28T00:11:31.845Z,16.62
2022-08-28T00:14:00.848Z,16.65
2022-08-28T00:16:27.423Z,16.67
2022-08-28T00:18:53.884Z,16.81
2022-08-28T00:21:20.320Z,16.83
2022-08-28T00:23:46.778Z,16.84
2022-08-28T00:26:33.259Z,16.83
2022-08-28T00:29:01.209Z,16.85
2022-08-28T00:31:27.688Z,16.80
2022-08-28T00:33:54.269Z,16.59
2022-08-28T00:36:20.752Z,16.44
2022-08-28T00:38:47.332Z,16.72
2022-08-28T00:41:13.843Z,16.86
2022-08-28T00:43:43.062Z,16.89
2022-08-28T00:46:16.448Z,17.11
2022-08-28T00:48:43.221Z,17.13
2022-08-28T00:51:30.164Z,17.11
2022-08-28T00:53:59.045Z,17.07
2022-08-28T00:56:27.586Z,17.03
2022-08-28T00:58:56.728Z,17.03
2022-08-28T01:01:24.101Z,16.99
2022-08-28T01:03:50.709Z,17.03
2022-08-28T01:06:20.521Z,17.04
2022-08-28T01:08:50.679Z,17.21
2022-08-28T01:11:19.482Z,16.81
2022-08-28T01:13:48.388Z,16.86
2022-08-28T01:16:17.462Z,16.92
2022-08-28T01:18:46.149Z,16.85
2022-08-28T01:21:33.144Z,17.10
2022-08-28T01:24:04.924Z,17.19
2022-08-28T01:26:31.759Z,17.20
2022-08-28T01:28:59.834Z,17.32
2022-08-28T01:31:29.981Z,17.31
2022-08-28T01:33:59.196Z,17.32
2022-08-28T01:36:26.006Z,17.33
2022-08-28T01:39:00.950Z,17.33
2022-08-28T01:41:29.461Z,17.37
2022-08-28T01:43:56.133Z,17.39
2022-08-28T01:46:22.746Z,17.39
2022-08-28T01:48:49.343Z,17.34
2022-08-28T01:51:15.865Z,17.36
2022-08-28T01:53:46.345Z,17.31
2022-08-28T01:56:15.597Z,17.30
2022-08-28T01:58:42.357Z,17.20
2022-08-28T02:01:13.470Z,17.33
2022-08-28T02:03:42.997Z,17.48
2022-08-28T02:06:10.065Z,17.46
2022-08-28T02:08:36.903Z,17.48
2022-08-28T02:11:06.224Z,17.55
2022-08-28T02:13:33.731Z,17.56
2022-08-28T02:16:00.887Z,17.66
2022-08-28T02:18:27.679Z,17.68
2022-08-28T02:20:54.106Z,17.62
2022-08-28T02:23:20.554Z,17.63
2022-08-28T02:25:47.344Z,17.63
2022-08-28T02:28:16.445Z,17.69
2022-08-28T02:30:43.111Z,17.65
2022-08-28T02:33:09.674Z,17.58
2022-08-28T02:35:36.174Z,17.79
2022-08-28T02:38:04.328Z,17.79
2022-08-28T02:40:31.595Z,17.85
2022-08-28T02:42:58.176Z,17.87
2022-08-28T02:45:24.653Z,17.98
2022-08-28T02:47:53.886Z,18.02
2022-08-28T02:50:20.898Z,18.15
2022-08-28T02:52:47.487Z,18.09
2022-08-28T02:55:16.152Z,18.08
2022-08-28T02:57:42.967Z,18.10
2022-08-28T03:00:13.489Z,18.14
2022-08-28T03:02:41.592Z,18.19
2022-08-28T03:05:09.194Z,18.09
2022-08-28T03:07:35.656Z,17.99
2022-08-28T03:10:02.757Z,18.04
2022-08-28T03:12:29.191Z,18.03
2022-08-28T03:14:56.732Z,18.01
2022-08-28T03:17:23.200Z,18.04
2022-08-28T03:19:50.147Z,18.02
2022-08-28T03:22:18.080Z,17.93
2022-08-28T03:24:44.982Z,17.92
2022-08-28T03:27:11.656Z,18.06
2022-08-28T03:29:38.184Z,18.09
2022-08-28T03:32:04.736Z,18.13
2022-08-28T03:34:31.218Z,18.11
2022-08-28T03:36:57.711Z,18.08
2022-08-28T03:39:24.093Z,18.09
2022-08-28T03:41:51.540Z,18.19
2022-08-28T03:44:17.935Z,18.24
2022-08-28T03:46:44.385Z,18.15
2022-08-28T03:49:11.229Z,18.22
2022-08-28T03:51:38.335Z,18.20
2022-08-28T03:54:05.518Z,18.17
2022-08-28T03:56:32.500Z,18.11
2022-08-28T03:59:00.973Z,18.09
2022-08-28T04:01:28.283Z,18.07
2022-08-28T04:03:56.186Z,18.12
2022-08-28T04:06:22.934Z,18.10
2022-08-28T04:08:50.945Z,18.18
2022-08-28T04:11:18.246Z,18.13
2022-08-28T04:13:44.999Z,18.16
2022-08-28T04:16:14.298Z,18.17
2022-08-28T04:18:42.445Z,18.14
2022-08-28T04:21:12.607Z,18.05
2022-08-28T04:23:43.101Z,18.09
2022-08-28T04:26:12.525Z,18.02
2022-08-28T04:28:39.539Z,17.92
2022-08-28T04:31:08.053Z,17.96
2022-08-28T04:33:35.893Z,17.91
2022-08-28T04:36:11.176Z,17.84
2022-08-28T04:38:43.510Z,17.80
2022-08-28T04:41:12.908Z,17.78
2022-08-28T04:43:39.683Z,17.63
2022-08-28T04:46:08.639Z,17.58
2022-08-28T04:48:36.162Z,17.55
2022-08-28T04:51:06.359Z,17.59
2022-08-28T04:53:33.009Z,17.64
2022-08-28T04:56:00.674Z,17.59
2022-08-28T04:58:27.576Z,17.58
2022-08-28T05:00:55.156Z,17.63
2022-08-28T05:03:22.546Z,17.60
2022-08-28T05:05:54.031Z,17.60
2022-08-28T05:08:23.361Z,17.64
2022-08-28T05:10:50.889Z,17.65
2022-08-28T05:13:20.995Z,17.60
2022-08-28T05:15:49.998Z,17.68
2022-08-28T05:18:18.796Z,17.75
2022-08-28T05:20:47.731Z,17.83
2022-08-28T05:23:16.779Z,17.80
2022-08-28T05:25:46.141Z,17.94
2022-08-28T05:28:13.030Z,18.02
2022-08-28T05:30:41.971Z,17.98
2022-08-28T05:33:10.415Z,17.84
2022-08-28T05:35:39.060Z,17.97
2022-08-28T05:38:06.634Z,18.04
2022-08-28T05:40:33.978Z,18.10
2022-08-28T05:43:00.483Z,18.06
2022-08-28T05:45:26.941Z,18.01
2022-08-28T05:47:53.965Z,18.09
2022-08-28T05:50:20.422Z,18.22
2022-08-28T05:52:47.432Z,18.34
2022-08-28T05:55:14.081Z,18.58
2022-08-28T05:57:41.478Z,18.85
2022-08-28T06:00:13.347Z,19.69
2022-08-28T06:02:41.881Z,21.00
2022-08-28T06:05:12.649Z,21.54
2022-08-28T06:07:40.997Z,21.34
2022-08-28T06:10:10.713Z,20.70
2022-08-28T06:12:37.977Z,20.31
2022-08-28T06:15:05.527Z,20.03
2022-08-28T06:17:31.991Z,19.85
2022-08-28T06:19:58.417Z,19.52
2022-08-28T06:22:24.840Z,19.58
2022-08-28T06:24:51.236Z,19.55
2022-08-28T06:27:17.728Z,19.58
2022-08-28T06:29:44.693Z,20.06
2022-08-28T06:32:11.258Z,20.53
2022-08-28T06:34:37.760Z,20.48
2022-08-28T06:37:04.480Z,20.32
2022-08-28T06:39:31.018Z,20.47
2022-08-28T06:41:57.440Z,20.76
2022-08-28T06:44:23.937Z,21.46
2022-08-28T06:46:53.648Z,22.55
2022-08-28T06:49:20.784Z,23.95
2022-08-28T06:51:47.397Z,24.19
2022-08-28T06:54:21.137Z,25.31
2022-08-28T06:56:49.385Z,26.28
2022-08-28T06:59:15.907Z,27.30
2022-08-28T07:01:42.484Z,27.78
2022-08-28T07:04:11.419Z,28.19
2022-08-28T07:06:41.353Z,28.58
2022-08-28T07:09:11.000Z,27.97
2022-08-28T07:11:38.450Z,27.00
2022-08-28T07:14:05.880Z,27.23
2022-08-28T07:16:35.342Z,27.17
2022-08-28T07:19:05.155Z,26.37
2022-08-28T07:21:35.320Z,25.34
2022-08-28T07:24:06.452Z,25.04
2022-08-28T07:26:32.939Z,25.69
2022-08-28T07:29:10.973Z,26.77
2022-08-28T07:31:40.829Z,26.79
2022-08-28T07:34:08.339Z,26.18
2022-08-28T07:36:34.919Z,25.91
2022-08-28T07:39:01.525Z,25.74
2022-08-28T07:41:30.905Z,25.34
2022-08-28T07:44:16.263Z,25.09
2022-08-28T07:46:42.974Z,24.42
2022-08-28T07:49:10.560Z,24.49
2022-08-28T07:51:37.147Z,25.28
2022-08-28T07:54:04.451Z,26.39
2022-08-28T07:56:31.863Z,27.49
2022-08-28T07:59:00.632Z,27.75
2022-08-28T08:01:30.684Z,27.77
2022-08-28T08:04:01.348Z,28.08
2022-08-28T08:06:33.725Z,28.10
2022-08-28T08:09:01.934Z,28.32
2022-08-28T08:11:32.196Z,28.70
2022-08-28T08:14:04.802Z,29.07
2022-08-28T08:16:35.496Z,29.22
2022-08-28T08:19:03.377Z,29.28
2022-08-28T08:21:31.527Z,29.10
2022-08-28T08:23:58.847Z,29.03
2022-08-28T08:26:28.184Z,29.13
2022-08-28T08:28:56.517Z,29.35
2022-08-28T08:31:34.179Z,29.59
2022-08-28T08:34:04.382Z,29.94
2022-08-28T08:36:32.794Z,30.02
2022-08-28T08:39:00.496Z,30.08
2022-08-28T08:41:33.342Z,30.18
2022-08-28T08:44:02.985Z,30.01
2022-08-28T08:46:48.438Z,29.40
2022-08-28T08:49:22.584Z,29.36
2022-08-28T08:52:11.204Z,29.30
2022-08-28T08:54:46.411Z,29.48
2022-08-28T08:57:14.953Z,29.36
2022-08-28T08:59:41.861Z,29.23
2022-08-28T09:02:22.437Z,29.15
2022-08-28T09:05:10.111Z,29.03
2022-08-28T09:07:41.009Z,29.14
2022-08-28T09:10:12.298Z,28.91
2022-08-28T09:12:57.299Z,28.82
2022-08-28T09:15:32.063Z,29.18
2022-08-28T09:18:20.907Z,29.24
2022-08-28T09:20:52.110Z,29.02
2022-08-28T09:23:18.797Z,29.20
2022-08-28T09:25:50.917Z,28.95
2022-08-28T09:28:25.920Z,28.99
2022-08-28T09:31:16.209Z,29.29
2022-08-28T09:33:49.312Z,29.65
2022-08-28T09:36:29.402Z,29.70
2022-08-28T09:39:17.157Z,29.83
2022-08-28T09:42:05.116Z,30.20
2022-08-28T09:44:32.138Z,30.06
2022-08-28T09:46:59.292Z,29.78
2022-08-28T09:49:30.359Z,29.49
2022-08-28T09:52:01.697Z,29.30
2022-08-28T09:54:36.193Z,29.02
2022-08-28T09:57:03.713Z,29.11
2022-08-28T09:59:31.002Z,29.08
2022-08-28T10:02:31.218Z,29.35
2022-08-28T10:05:04.206Z,28.88
2022-08-28T10:07:40.284Z,28.68
2022-08-28T10:10:31.836Z,28.88
2022-08-28T10:13:14.842Z,28.20
2022-08-28T10:15:43.265Z,28.83
2022-08-28T10:18:10.068Z,30.12
2022-08-28T10:21:03.109Z,31.14
2022-08-28T10:23:54.300Z,32.25
2022-08-28T10:26:39.507Z,32.64
2022-08-28T10:29:23.766Z,33.10
2022-08-28T10:32:14.825Z,33.99
2022-08-28T10:34:49.789Z,33.77
2022-08-28T10:37:46.773Z,34.06
2022-08-28T10:40:35.816Z,34.19
2022-08-28T10:43:05.950Z,34.05
2022-08-28T10:45:34.797Z,34.35
2022-08-28T10:48:09.092Z,35.09
2022-08-28T10:50:42.695Z,34.87
2022-08-28T10:53:16.824Z,34.36
2022-08-28T10:56:24.798Z,33.86
2022-08-28T10:58:57.367Z,34.61
2022-08-28T11:01:43.142Z,35.53
2022-08-28T11:04:24.900Z,35.38
2022-08-28T11:06:57.306Z,35.60
2022-08-28T11:09:36.469Z,35.65
2022-08-28T11:12:28.214Z,36.21
2022-08-28T11:14:55.111Z,35.90
2022-08-28T11:17:33.401Z,35.80
2022-08-28T11:20:24.656Z,36.02
2022-08-28T11:22:53.985Z,36.19
2022-08-28T11:25:54.943Z,35.76
2022-08-28T11:28:25.471Z,35.19
2022-08-28T11:31:28.809Z,35.75
2022-08-28T11:33:58.952Z,35.21
2022-08-28T11:36:26.441Z,35.27
2022-08-28T11:38:55.690Z,35.50
2022-08-28T11:41:39.033Z,34.71
2022-08-28T11:44:12.565Z,34.76
2022-08-28T11:46:50.843Z,33.23
2022-08-28T11:49:26.498Z,33.40
2022-08-28T11:52:16.316Z,34.35
2022-08-28T11:55:00.806Z,34.58
2022-08-28T12:00:52.875Z,33.96
2022-08-28T12:03:25.607Z,34.02
2022-08-28T12:05:57.987Z,34.65
2022-08-28T12:08:51.297Z,35.00
2022-08-28T12:11:39.473Z,34.42
2022-08-28T12:14:25.253Z,34.61
2022-08-28T12:17:04.911Z,34.61
2022-08-28T12:19:41.194Z,34.52
2022-08-28T12:22:22.526Z,34.91
2022-08-28T12:24:59.289Z,34.88
2022-08-28T12:27:26.261Z,35.22
2022-08-28T12:30:00.961Z,34.97
2022-08-28T12:32:54.322Z,35.06
2022-08-28T12:35:23.967Z,34.94
2022-08-28T12:37:53.706Z,34.81
2022-08-28T12:40:26.451Z,35.17
2022-08-28T12:42:56.615Z,35.08
2022-08-28T12:45:42.685Z,34.13
2022-08-28T12:48:33.844Z,33.58
2022-08-28T12:51:13.519Z,34.54
2022-08-28T12:53:45.978Z,35.11
2022-08-28T12:56:15.777Z,36.32
2022-08-28T12:58:43.086Z,36.96
2022-08-28T13:01:11.508Z,36.83
2022-08-28T13:03:47.745Z,37.55
2022-08-28T13:06:23.320Z,37.68
2022-08-28T13:08:49.973Z,37.89
2022-08-28T13:11:19.989Z,37.34
2022-08-28T13:13:49.981Z,37.06
2022-08-28T13:16:37.567Z,38.28
2022-08-28T13:19:04.012Z,38.59
2022-08-28T13:21:37.185Z,38.46
2022-08-28T13:24:21.925Z,38.30
2022-08-28T13:26:58.911Z,38.52
2022-08-28T13:29:25.565Z,38.57
2022-08-28T13:32:17.460Z,38.86
2022-08-28T13:35:17.412Z,38.68
2022-08-28T13:37:54.882Z,37.84
2022-08-28T13:41:05.998Z,37.39
2022-08-28T13:43:19.938Z,38.58
2022-08-28T13:45:48.812Z,38.35
2022-08-28T13:48:20.840Z,38.63
2022-08-28T13:51:08.617Z,34.22
2022-08-28T13:53:37.156Z,36.88
2022-08-28T13:56:04.112Z,37.85
2022-08-28T13:58:31.163Z,37.97
2022-08-28T14:00:57.955Z,36.83
2022-08-28T14:03:37.466Z,35.22
2022-08-28T14:06:09.125Z,35.07
2022-08-28T14:08:35.693Z,36.10
2022-08-28T14:11:02.381Z,37.11
2022-08-28T14:13:29.008Z,37.39
2022-08-28T14:15:56.520Z,37.65
2022-08-28T14:18:24.571Z,37.79
2022-08-28T14:20:51.084Z,38.27
2022-08-28T14:23:17.818Z,38.87
2022-08-28T14:25:45.843Z,38.85
2022-08-28T14:28:14.315Z,37.82
2022-08-28T14:30:42.779Z,38.56
2022-08-28T14:33:09.506Z,38.15
2022-08-28T14:35:40.685Z,38.23
2022-08-28T14:38:08.192Z,38.12
2022-08-28T14:40:44.842Z,39.01
2022-08-28T14:43:13.884Z,38.10
2022-08-28T14:45:49.239Z,35.81
2022-08-28T14:48:18.423Z,35.38
2022-08-28T14:50:48.088Z,34.22
2022-08-28T14:53:15.663Z,32.83
2022-08-28T14:55:48.295Z,31.20
2022-08-28T14:58:16.312Z,31.13
2022-08-28T15:00:47.100Z,30.63
2022-08-28T15:03:14.111Z,30.11
2022-08-28T15:05:41.078Z,29.81
2022-08-28T15:08:10.027Z,30.47
2022-08-28T15:10:42.167Z,32.32
2022-08-28T15:13:10.193Z,31.70
2022-08-28T15:15:39.493Z,31.91
2022-08-28T15:18:10.408Z,33.32
2022-08-28T15:20:41.695Z,34.41
2022-08-28T15:23:08.727Z,34.55
2022-08-28T15:25:35.356Z,34.48
2022-08-28T15:28:01.985Z,34.55
2022-08-28T15:30:28.442Z,33.89
2022-08-28T15:32:54.890Z,32.40
2022-08-28T15:35:21.377Z,30.85
2022-08-28T15:37:47.938Z,29.43
2022-08-28T15:40:33.263Z,28.48
2022-08-28T15:43:00.028Z,27.74
2022-08-28T15:45:27.079Z,27.75
2022-08-28T15:47:54.097Z,27.25
2022-08-28T15:50:20.674Z,27.04
2022-08-28T15:52:47.455Z,26.84
2022-08-28T15:55:13.925Z,26.67
2022-08-28T15:57:40.312Z,26.54
2022-08-28T16:00:10.319Z,26.51
2022-08-28T16:02:37.351Z,26.41
2022-08-28T16:05:04.112Z,26.49
2022-08-28T16:07:30.649Z,26.64
2022-08-28T16:09:57.133Z,26.74
2022-08-28T16:12:23.654Z,26.87
2022-08-28T16:14:50.313Z,26.86
2022-08-28T16:17:17.320Z,26.74
2022-08-28T16:19:44.953Z,26.51
2022-08-28T16:22:15.732Z,26.38
2022-08-28T16:24:42.882Z,26.23
2022-08-28T16:27:14.658Z,25.93
2022-08-28T16:29:42.091Z,26.00
2022-08-28T16:32:09.594Z,25.92
2022-08-28T16:34:38.473Z,25.89
2022-08-28T16:37:08.015Z,25.96
2022-08-28T16:39:35.346Z,25.86
2022-08-28T16:42:02.301Z,25.62
2022-08-28T16:44:28.738Z,25.49
2022-08-28T16:46:55.731Z,25.39
2022-08-28T16:49:23.502Z,25.30
2022-08-28T16:51:50.041Z,25.17
2022-08-28T16:54:21.459Z,25.03
2022-08-28T16:56:47.965Z,25.12
2022-08-28T16:59:20.339Z,24.98
2022-08-28T17:01:53.073Z,24.88
2022-08-28T17:04:20.469Z,24.79
2022-08-28T17:06:47.086Z,24.70
2022-08-28T17:09:13.593Z,24.57
2022-08-28T17:11:40.137Z,24.51
2022-08-28T17:14:07.742Z,24.35
2022-08-28T17:16:34.327Z,24.38
2022-08-28T17:19:00.890Z,24.18
2022-08-28T17:21:45.643Z,23.97
2022-08-28T17:24:12.525Z,23.85
2022-08-28T17:26:40.501Z,23.74
2022-08-28T17:29:07.145Z,23.69
2022-08-28T17:31:33.839Z,23.54
2022-08-28T17:34:00.508Z,23.42
2022-08-28T17:36:33.011Z,23.18
2022-08-28T17:39:01.835Z,23.21
2022-08-28T17:41:28.325Z,23.01
2022-08-28T17:43:54.832Z,22.99
2022-08-28T17:46:21.438Z,22.82
2022-08-28T17:48:55.432Z,22.74
2022-08-28T17:51:42.130Z,22.64
2022-08-28T17:54:10.818Z,22.53
2022-08-28T17:56:37.318Z,22.34
2022-08-28T17:59:04.709Z,22.21
2022-08-28T18:01:31.216Z,22.12
2022-08-28T18:03:57.810Z,22.00
2022-08-28T18:06:24.945Z,21.89
2022-08-28T18:08:51.826Z,21.91
2022-08-28T18:11:19.074Z,21.79
2022-08-28T18:13:46.253Z,21.66
2022-08-28T18:16:12.858Z,21.49
2022-08-28T18:18:39.436Z,21.21
2022-08-28T18:21:06.024Z,21.00
2022-08-28T18:23:32.784Z,20.89
2022-08-28T18:25:59.256Z,20.86
2022-08-28T18:28:26.626Z,20.66
2022-08-28T18:30:54.193Z,20.54
2022-08-28T18:33:23.647Z,20.39
2022-08-28T18:35:51.684Z,20.21
2022-08-28T18:38:19.890Z,20.05
2022-08-28T18:40:46.696Z,19.90
2022-08-28T18:43:13.747Z,19.56
2022-08-28T18:45:40.527Z,19.46
2022-08-28T18:48:10.111Z,19.38
2022-08-28T18:50:36.667Z,19.16
2022-08-28T18:53:03.690Z,19.04
2022-08-28T18:55:32.065Z,19.06
2022-08-28T18:57:59.679Z,19.00
2022-08-28T19:00:27.127Z,18.88
2022-08-28T19:02:54.213Z,18.67
2022-08-28T19:05:21.212Z,18.47
2022-08-28T19:07:48.477Z,18.38
2022-08-28T19:10:32.460Z,18.40
2022-08-28T19:13:01.007Z,18.12
2022-08-28T19:15:28.226Z,18.01
2022-08-28T19:17:54.709Z,17.85
2022-08-28T19:20:21.437Z,17.75
2022-08-28T19:22:48.707Z,17.67
2022-08-28T19:25:27.447Z,17.58
2022-08-28T19:27:54.745Z,17.45
2022-08-28T19:30:25.975Z,17.48
2022-08-28T19:32:52.519Z,17.28
2022-08-28T19:35:19.427Z,17.14
2022-08-28T19:37:46.309Z,16.70
2022-08-28T19:40:14.011Z,16.79
2022-08-28T19:42:41.140Z,16.85
2022-08-28T19:45:10.434Z,16.59
2022-08-28T19:47:36.917Z,16.51
2022-08-28T19:50:08.228Z,16.50
2022-08-28T19:52:36.288Z,16.33
2022-08-28T19:55:05.585Z,16.20
2022-08-28T19:57:32.822Z,16.15
2022-08-28T20:00:00.008Z,16.27
2022-08-28T20:02:27.171Z,15.89
2022-08-28T20:04:54.459Z,15.96
2022-08-28T20:07:21.136Z,16.03
2022-08-28T20:09:47.699Z,16.00
2022-08-28T20:12:14.593Z,15.97
2022-08-28T20:14:42.494Z,15.82
2022-08-28T20:17:08.950Z,15.68
2022-08-28T20:19:35.860Z,15.56
2022-08-28T20:22:03.075Z,15.49
2022-08-28T20:24:29.626Z,15.52
2022-08-28T20:26:56.212Z,15.53
2022-08-28T20:29:24.157Z,15.41
2022-08-28T20:31:50.915Z,15.24
2022-08-28T20:34:19.211Z,15.12
2022-08-28T20:36:46.401Z,15.05
2022-08-28T20:39:13.059Z,14.88
2022-08-28T20:41:40.948Z,14.88
2022-08-28T20:44:09.431Z,15.07
2022-08-28T20:46:40.880Z,14.96
2022-08-28T20:49:12.637Z,14.91
2022-08-28T20:51:53.485Z,14.96
2022-08-28T20:54:22.068Z,14.93
2022-08-28T20:56:50.624Z,14.54
2022-08-28T20:59:18.215Z,14.59
2022-08-28T21:01:44.787Z,14.58
2022-08-28T21:04:11.294Z,14.40
2022-08-28T21:06:38.264Z,14.14
2022-08-28T21:09:04.856Z,14.22
2022-08-28T21:11:31.288Z,14.30
2022-08-28T21:13:57.786Z,14.34
2022-08-28T21:16:24.340Z,14.27
2022-08-28T21:19:14.651Z,14.30
2022-08-28T21:21:37.746Z,13.73
2022-08-28T21:24:09.484Z,13.76
2022-08-28T21:26:39.178Z,13.90
2022-08-28T21:29:09.112Z,14.13
2022-08-28T21:31:35.635Z,14.09
2022-08-28T21:34:02.642Z,14.20
2022-08-28T21:36:29.235Z,13.84
2022-08-28T21:38:57.311Z,13.76
2022-08-28T21:41:24.438Z,13.77
2022-08-28T21:43:50.886Z,13.65
2022-08-28T21:46:17.569Z,13.79
2022-08-28T21:48:49.637Z,13.87
2022-08-28T21:51:18.004Z,13.94
2022-08-28T21:53:45.565Z,13.95
2022-08-28T21:56:17.265Z,14.17
2022-08-28T21:58:43.767Z,14.20
2022-08-28T22:01:14.710Z,13.68
2022-08-28T22:03:41.500Z,13.96
2022-08-28T22:06:13.446Z,13.76
2022-08-28T22:08:41.239Z,13.62
2022-08-28T22:11:09.882Z,13.55
2022-08-28T22:13:37.184Z,13.35
2022-08-28T22:16:04.870Z,13.56
2022-08-28T22:18:34.181Z,13.17
2022-08-28T22:21:20.147Z,13.50
2022-08-28T22:23:47.323Z,13.42
2022-08-28T22:26:17.206Z,13.43
2022-08-28T22:28:44.218Z,13.28
2022-08-28T22:31:10.744Z,13.15
2022-08-28T22:33:37.524Z,13.19
2022-08-28T22:36:04.315Z,13.28
2022-08-28T22:38:31.261Z,13.30
2022-08-28T22:40:58.021Z,13.09
2022-08-28T22:43:24.574Z,12.85
2022-08-28T22:45:51.019Z,13.21
2022-08-28T22:48:18.184Z,13.17
2022-08-28T22:50:46.486Z,13.05
2022-08-28T22:53:14.820Z,12.91
2022-08-28T22:55:45.156Z,12.83
2022-08-28T22:58:12.806Z,12.60
2022-08-28T23:00:41.654Z,12.59
2022-08-28T23:03:08.353Z,12.57
2022-08-28T23:05:34.924Z,12.72
2022-08-28T23:08:01.582Z,12.67
2022-08-28T23:10:48.323Z,12.40
2022-08-28T23:13:15.442Z,12.05
2022-08-28T23:15:43.437Z,12.30
2022-08-28T23:18:11.027Z,12.27
2022-08-28T23:20:37.576Z,12.45
2022-08-28T23:23:04.068Z,12.29
2022-08-28T23:25:30.606Z,12.03
2022-08-28T23:27:57.323Z,12.40
2022-08-28T23:30:25.068Z,11.91
2022-08-28T23:32:52.833Z,12.08
2022-08-28T23:35:20.181Z,11.95
2022-08-28T23:37:51.857Z,12.02
2022-08-28T23:40:23.917Z,11.37
2022-08-28T23:42:52.240Z,11.83
2022-08-28T23:45:19.936Z,11.75
2022-08-28T23:47:47.547Z,11.64
2022-08-28T23:50:18.357Z,12.03
2022-08-28T23:52:45.114Z,12.01
2022-08-28T23:55:14.120Z,11.93
2022-08-28T23:57:40.803Z,11.94
